createdAt,value
2022-09-14T00:00:13.713Z,8.60
2022-09-14T00:02:42.149Z,7.88
2022-09-14T00:05:09.259Z,10.55
2022-09-14T00:07:36.150Z,9.88
2022-09-14T00:10:03.037Z,8.23
2022-09-14T00:12:30.385Z,8.75
2022-09-14T00:14:57.155Z,10.45
2022-09-14T00:17:24.046Z,9.90
2022-09-14T00:19:50.915Z,10.30
2022-09-14T00:22:17.874Z,10.13
2022-09-14T00:24:44.745Z,9.05
2022-09-14T00:27:11.696Z,9.35
2022-09-14T00:29:38.590Z,9.80
2022-09-14T00:32:05.627Z,12.85
2022-09-14T00:34:32.729Z,8.60
2022-09-14T00:36:59.638Z,13.82
2022-09-14T00:39:28.320Z,10.60
2022-09-14T00:41:55.336Z,13.57
2022-09-14T00:44:25.261Z,14.15
2022-09-14T00:46:53.471Z,14.00
2022-09-14T00:49:22.689Z,10.35
2022-09-14T00:51:55.247Z,13.23
2022-09-14T00:54:22.191Z,22.33
2022-09-14T00:56:49.652Z,19.95
2022-09-14T00:59:18.108Z,20.60
2022-09-14T01:01:45.138Z,17.23
2022-09-14T01:04:12.131Z,13.10
2022-09-14T01:06:43.195Z,10.35
2022-09-14T01:09:10.025Z,12.18
2022-09-14T01:11:42.902Z,19.90
2022-09-14T01:14:17.136Z,15.88
2022-09-14T01:16:50.707Z,13.80
2022-09-14T01:19:33.693Z,13.13
2022-09-14T01:22:05.659Z,11.10
2022-09-14T01:24:45.921Z,12.02
2022-09-14T01:27:12.911Z,11.60
2022-09-14T01:29:46.942Z,11.18
2022-09-14T01:32:13.803Z,11.25
2022-09-14T01:34:44.726Z,11.57
2022-09-14T01:37:30.162Z,12.90
2022-09-14T01:40:22.367Z,15.82
2022-09-14T01:42:52.179Z,11.55
2022-09-14T01:45:21.375Z,15.55
2022-09-14T01:48:08.568Z,11.98
2022-09-14T01:50:40.326Z,11.10
2022-09-14T01:53:16.563Z,11.25
2022-09-14T01:55:46.230Z,11.70
2022-09-14T01:58:18.969Z,10.00
2022-09-14T02:00:46.289Z,11.80
2022-09-14T02:03:16.593Z,13.10
2022-09-14T02:05:43.704Z,12.75
2022-09-14T02:08:10.682Z,15.88
2022-09-14T02:10:37.697Z,13.95
2022-09-14T02:13:04.670Z,13.15
2022-09-14T02:15:31.620Z,12.90
2022-09-14T02:17:58.554Z,14.23
2022-09-14T02:20:37.865Z,13.82
2022-09-14T02:23:05.349Z,18.13
2022-09-14T02:25:32.504Z,18.85
2022-09-14T02:27:59.420Z,15.25
2022-09-14T02:30:27.339Z,17.05
2022-09-14T02:32:54.208Z,19.25
2022-09-14T02:35:37.503Z,16.75
2022-09-14T02:38:23.189Z,18.55
2022-09-14T02:41:19.524Z,18.17
2022-09-14T02:43:52.436Z,19.27
2022-09-14T02:46:38.678Z,26.88
2022-09-14T02:49:22.589Z,24.27
2022-09-14T02:51:56.187Z,29.88
2022-09-14T02:54:32.964Z,32.95
2022-09-14T02:57:00.584Z,23.98
2022-09-14T02:59:27.405Z,22.63
2022-09-14T03:01:54.677Z,18.30
2022-09-14T03:04:21.808Z,20.08
2022-09-14T03:06:48.625Z,16.65
2022-09-14T03:09:15.496Z,18.02
2022-09-14T03:11:42.482Z,17.73
2022-09-14T03:14:10.413Z,19.83
2022-09-14T03:16:38.152Z,14.90
2022-09-14T03:19:06.127Z,15.20
2022-09-14T03:21:33.358Z,19.20
2022-09-14T03:24:00.198Z,17.52
2022-09-14T03:26:29.140Z,17.00
2022-09-14T03:28:57.301Z,20.85
2022-09-14T03:31:24.892Z,18.70
2022-09-14T03:33:58.507Z,19.13
2022-09-14T03:36:26.674Z,18.42
2022-09-14T03:38:54.712Z,25.73
2022-09-14T03:41:22.459Z,20.90
2022-09-14T03:43:49.659Z,24.48
2022-09-14T03:46:21.573Z,20.67
2022-09-14T03:48:49.280Z,18.00
2022-09-14T03:51:16.176Z,20.88
2022-09-14T03:53:44.535Z,16.17
2022-09-14T03:56:12.940Z,14.70
2022-09-14T03:58:39.759Z,17.45
2022-09-14T04:01:07.233Z,19.13
2022-09-14T04:03:34.587Z,18.33
2022-09-14T04:06:01.530Z,18.00
2022-09-14T04:08:28.449Z,19.67
2022-09-14T04:10:55.302Z,16.83
2022-09-14T04:13:22.196Z,17.45
2022-09-14T04:15:59.112Z,19.70
2022-09-14T04:18:27.709Z,19.60
2022-09-14T04:20:56.416Z,17.30
2022-09-14T04:23:23.645Z,23.75
2022-09-14T04:25:50.481Z,19.88
2022-09-14T04:28:20.484Z,21.30
2022-09-14T04:30:57.723Z,23.08
2022-09-14T04:33:25.039Z,19.77
2022-09-14T04:36:02.551Z,18.27
2022-09-14T04:38:30.526Z,15.80
2022-09-14T04:40:57.667Z,17.67
2022-09-14T04:43:25.156Z,19.17
2022-09-14T04:45:52.535Z,20.83
2022-09-14T04:48:19.724Z,21.30
2022-09-14T04:50:46.636Z,20.52
2022-09-14T04:53:13.540Z,27.38
2022-09-14T04:55:40.482Z,22.73
2022-09-14T04:58:07.319Z,20.88
2022-09-14T05:00:36.166Z,21.40
2022-09-14T05:03:04.431Z,23.30
2022-09-14T05:05:31.651Z,23.05
2022-09-14T05:07:58.458Z,21.13
2022-09-14T05:10:25.246Z,26.80
2022-09-14T05:12:52.094Z,23.52
2022-09-14T05:15:18.914Z,21.20
2022-09-14T05:17:45.748Z,21.88
2022-09-14T05:20:12.612Z,20.70
2022-09-14T05:22:39.461Z,25.08
2022-09-14T05:25:06.553Z,23.08
2022-09-14T05:27:33.382Z,22.63
2022-09-14T05:30:00.332Z,26.40
2022-09-14T05:32:27.199Z,22.48
2022-09-14T05:34:54.171Z,24.02
2022-09-14T05:37:21.093Z,22.30
2022-09-14T05:39:47.953Z,23.35
2022-09-14T05:42:14.823Z,24.45
2022-09-14T05:44:41.718Z,22.27
2022-09-14T05:47:08.568Z,23.17
2022-09-14T05:49:35.381Z,22.13
2022-09-14T05:52:02.309Z,23.08
2022-09-14T05:54:29.234Z,25.30
2022-09-14T05:56:56.136Z,23.77
2022-09-14T05:59:23.063Z,23.95
2022-09-14T06:01:50.066Z,22.35
2022-09-14T06:04:17.051Z,24.48
2022-09-14T06:06:52.257Z,22.10
2022-09-14T06:09:33.245Z,25.42
2022-09-14T06:12:00.362Z,23.42
2022-09-14T06:14:27.236Z,21.95
2022-09-14T06:16:54.161Z,27.23
2022-09-14T06:19:21.023Z,24.40
2022-09-14T06:21:47.955Z,23.80
2022-09-14T06:24:14.812Z,25.17
2022-09-14T06:26:41.912Z,31.33
2022-09-14T06:29:08.925Z,26.63
2022-09-14T06:31:36.118Z,24.40
2022-09-14T06:34:04.201Z,25.70
2022-09-14T06:36:31.179Z,21.45
2022-09-14T06:38:59.476Z,21.63
2022-09-14T06:41:29.308Z,20.55
2022-09-14T06:43:57.563Z,20.08
2022-09-14T06:46:25.943Z,22.63
2022-09-14T06:48:54.780Z,25.92
2022-09-14T06:51:24.702Z,22.73
2022-09-14T06:53:51.813Z,22.70
2022-09-14T06:56:18.745Z,24.23
2022-09-14T06:58:46.038Z,23.90
2022-09-14T07:01:15.133Z,30.52
2022-09-14T07:03:44.130Z,24.63
2022-09-14T07:06:12.872Z,24.80
2022-09-14T07:08:40.212Z,24.02
2022-09-14T07:11:07.882Z,24.23
2022-09-14T07:13:34.850Z,21.38
2022-09-14T07:16:03.518Z,20.58
2022-09-14T07:18:34.265Z,21.15
2022-09-14T07:23:32.188Z,20.85
2022-09-14T07:26:12.743Z,19.75
2022-09-14T07:28:40.061Z,21.77
2022-09-14T07:31:15.166Z,21.55
2022-09-14T07:33:42.179Z,18.02
2022-09-14T07:36:10.048Z,19.58
2022-09-14T07:38:51.520Z,18.80
2022-09-14T07:41:20.733Z,22.42
2022-09-14T07:43:51.214Z,24.10
2022-09-14T07:46:18.727Z,21.88
2022-09-14T07:48:45.628Z,23.33
2022-09-14T07:51:12.571Z,23.98
2022-09-14T07:53:42.635Z,22.15
2022-09-14T07:56:10.569Z,30.70
2022-09-14T07:58:37.349Z,21.83
2022-09-14T08:01:05.285Z,21.88
2022-09-14T08:03:32.043Z,23.35
2022-09-14T08:06:02.916Z,21.27
2022-09-14T08:08:30.919Z,25.80
2022-09-14T08:11:03.584Z,25.73
2022-09-14T08:13:31.086Z,25.00
2022-09-14T08:16:00.988Z,25.60
2022-09-14T08:18:31.084Z,23.00
2022-09-14T08:20:57.925Z,24.77
2022-09-14T08:23:25.577Z,25.55
2022-09-14T08:25:53.343Z,26.85
2022-09-14T08:28:20.147Z,30.23
2022-09-14T08:30:47.309Z,31.05
2022-09-14T08:33:14.060Z,32.80
2022-09-14T08:35:57.454Z,32.38
2022-09-14T08:38:25.304Z,29.45
2022-09-14T08:40:52.257Z,28.95
2022-09-14T08:43:19.826Z,28.20
2022-09-14T08:45:48.580Z,27.73
2022-09-14T08:48:20.486Z,30.50
2022-09-14T08:50:47.258Z,32.58
2022-09-14T08:53:14.141Z,29.95
2022-09-14T08:55:54.394Z,23.75
2022-09-14T08:58:48.164Z,28.25
2022-09-14T09:01:18.354Z,31.15
2022-09-14T09:03:54.127Z,28.70
2022-09-14T09:06:26.995Z,27.77
2022-09-14T09:08:53.739Z,26.35
2022-09-14T09:11:22.136Z,28.90
2022-09-14T09:13:51.238Z,26.80
2022-09-14T09:16:20.290Z,23.00
2022-09-14T09:18:49.444Z,28.73
2022-09-14T09:21:17.623Z,23.80
2022-09-14T09:23:44.937Z,24.15
2022-09-14T09:26:20.640Z,29.42
2022-09-14T09:28:49.653Z,28.23
2022-09-14T09:31:17.873Z,21.40
2022-09-14T09:36:36.504Z,23.25
2022-09-14T09:39:05.369Z,22.52
2022-09-14T09:41:52.735Z,25.15
2022-09-14T09:44:19.732Z,19.13
2022-09-14T09:46:48.865Z,23.40
2022-09-14T09:49:24.757Z,18.50
2022-09-14T09:51:52.910Z,20.73
2022-09-14T09:54:19.740Z,17.95
2022-09-14T09:56:57.347Z,19.13
2022-09-14T09:59:28.910Z,21.40
2022-09-14T10:01:56.745Z,21.25
2022-09-14T10:04:30.862Z,18.63
2022-09-14T10:07:00.382Z,24.02
2022-09-14T10:09:28.146Z,21.83
2022-09-14T10:12:02.365Z,17.92
2022-09-14T10:14:33.619Z,20.10
2022-09-14T10:17:15.910Z,21.10
2022-09-14T10:19:46.940Z,21.88
2022-09-14T10:22:21.948Z,21.15
2022-09-14T10:24:56.220Z,29.58
2022-09-14T10:27:38.608Z,22.58
2022-09-14T10:30:19.613Z,27.17
2022-09-14T10:32:50.146Z,25.15
2022-09-14T10:35:17.666Z,22.52
2022-09-14T10:38:10.855Z,21.50
2022-09-14T10:40:39.968Z,21.67
2022-09-14T10:43:13.580Z,19.58
2022-09-14T10:45:50.365Z,20.92
2022-09-14T10:48:22.941Z,24.13
2022-09-14T10:51:09.951Z,18.52
2022-09-14T10:53:41.400Z,22.17
2022-09-14T10:56:19.126Z,23.55
2022-09-14T10:58:49.349Z,28.08
2022-09-14T11:01:32.340Z,25.75
2022-09-14T11:04:11.556Z,19.45
2022-09-14T11:06:41.388Z,19.58
2022-09-14T11:09:17.739Z,23.40
2022-09-14T11:11:44.511Z,21.23
2022-09-14T11:14:30.135Z,19.67
2022-09-14T11:16:56.975Z,18.17
2022-09-14T11:19:23.939Z,20.60
2022-09-14T11:21:50.842Z,20.88
2022-09-14T11:24:19.694Z,23.92
2022-09-14T11:27:08.380Z,18.50
2022-09-14T11:29:39.142Z,20.67
2022-09-14T11:32:20.770Z,20.05
2022-09-14T11:34:54.981Z,19.08
2022-09-14T11:37:26.129Z,19.77
2022-09-14T11:40:02.120Z,17.77
2022-09-14T11:42:37.538Z,17.63
2022-09-14T11:45:13.941Z,18.15
2022-09-14T11:47:44.415Z,19.52
2022-09-14T11:50:23.137Z,15.38
2022-09-14T11:52:56.343Z,16.48
2022-09-14T11:55:23.427Z,15.48
2022-09-14T11:57:50.354Z,20.55
2022-09-14T12:00:20.175Z,17.77
2022-09-14T12:02:58.648Z,14.47
2022-09-14T12:05:26.668Z,17.10
2022-09-14T12:08:04.196Z,15.43
2022-09-14T12:10:31.219Z,18.30
2022-09-14T12:13:17.692Z,16.63
2022-09-14T12:15:45.324Z,16.77
2022-09-14T12:18:13.494Z,17.00
2022-09-14T12:20:44.758Z,26.70
2022-09-14T12:23:29.784Z,22.60
2022-09-14T12:26:12.210Z,23.13
2022-09-14T12:28:48.341Z,22.60
2022-09-14T12:31:34.376Z,22.25
2022-09-14T12:34:24.774Z,25.05
2022-09-14T12:36:52.335Z,25.25
2022-09-14T12:39:20.120Z,22.65
2022-09-14T12:41:47.038Z,26.17
2022-09-14T12:44:34.137Z,26.60
2022-09-14T12:47:19.901Z,24.20
2022-09-14T12:49:48.557Z,26.88
2022-09-14T12:52:23.533Z,27.40
2022-09-14T12:54:56.560Z,27.00
2022-09-14T12:57:31.558Z,28.05
2022-09-14T12:59:58.499Z,22.23
2022-09-14T13:02:43.961Z,22.80
2022-09-14T13:05:19.171Z,23.45
2022-09-14T13:07:47.143Z,29.23
2022-09-14T13:10:23.040Z,24.90
2022-09-14T13:12:51.007Z,22.58
2022-09-14T13:15:21.024Z,26.10
2022-09-14T13:18:00.216Z,23.88
2022-09-14T13:20:27.561Z,26.50
2022-09-14T13:22:54.471Z,28.95
2022-09-14T13:25:33.391Z,31.35
2022-09-14T13:28:08.019Z,29.25
2022-09-14T13:30:35.824Z,27.15
2022-09-14T13:33:04.182Z,32.15
2022-09-14T13:35:33.830Z,23.88
2022-09-14T13:38:08.422Z,25.88
2022-09-14T13:40:35.834Z,23.75
2022-09-14T13:43:03.389Z,25.38
2022-09-14T13:45:30.603Z,26.60
2022-09-14T13:47:58.310Z,29.45
2022-09-14T13:50:25.704Z,22.48
2022-09-14T13:53:02.948Z,28.92
2022-09-14T13:55:33.907Z,31.77
2022-09-14T13:58:07.964Z,23.97
2022-09-14T14:00:47.767Z,30.02
2022-09-14T14:03:30.753Z,25.60
2022-09-14T14:05:58.793Z,34.17
2022-09-14T14:08:31.902Z,25.52
2022-09-14T14:11:00.087Z,27.35
2022-09-14T14:13:31.925Z,32.33
2022-09-14T14:16:15.042Z,28.75
2022-09-14T14:18:43.764Z,28.05
2022-09-14T14:21:11.785Z,24.92
2022-09-14T14:23:51.316Z,23.52
2022-09-14T14:26:27.775Z,22.42
2022-09-14T14:28:55.287Z,22.50
2022-09-14T14:31:23.187Z,30.42
2022-09-14T14:33:51.836Z,26.05
2022-09-14T14:36:19.699Z,19.88
2022-09-14T14:38:47.707Z,21.90
2022-09-14T14:41:16.631Z,24.45
2022-09-14T14:43:46.810Z,29.10
2022-09-14T14:46:15.095Z,28.05
2022-09-14T14:48:42.197Z,28.35
2022-09-14T14:51:14.574Z,29.13
2022-09-14T14:53:42.525Z,25.58
2022-09-14T14:56:13.916Z,27.80
2022-09-14T14:58:45.420Z,32.88
2022-09-14T15:01:12.732Z,22.83
2022-09-14T15:03:40.235Z,24.38
2022-09-14T15:06:24.594Z,26.65
2022-09-14T15:08:55.849Z,26.75
2022-09-14T15:11:23.460Z,23.30
2022-09-14T15:13:51.105Z,31.10
2022-09-14T15:16:18.440Z,30.45
2022-09-14T15:18:45.660Z,22.38
2022-09-14T15:21:12.642Z,26.00
2022-09-14T15:23:39.826Z,22.98
2022-09-14T15:26:07.061Z,26.98
2022-09-14T15:28:38.761Z,27.88
2022-09-14T15:31:07.959Z,22.48
2022-09-14T15:33:35.554Z,27.95
2022-09-14T15:36:04.201Z,28.20
2022-09-14T15:38:31.551Z,19.85
2022-09-14T15:40:58.726Z,25.25
2022-09-14T15:43:26.393Z,19.40
2022-09-14T15:45:54.023Z,21.95
2022-09-14T15:48:21.708Z,25.23
2022-09-14T15:50:48.796Z,24.02
2022-09-14T15:53:17.870Z,19.92
2022-09-14T15:55:52.987Z,24.35
2022-09-14T15:58:20.370Z,21.92
2022-09-14T16:00:47.407Z,25.00
2022-09-14T16:03:14.497Z,30.90
2022-09-14T16:05:41.652Z,25.73
2022-09-14T16:08:08.986Z,25.77
2022-09-14T16:10:36.046Z,25.48
2022-09-14T16:13:03.600Z,41.38
2022-09-14T16:15:30.463Z,30.45
2022-09-14T16:17:57.805Z,29.73
2022-09-14T16:20:25.117Z,25.13
2022-09-14T16:23:01.146Z,22.63
2022-09-14T16:25:29.085Z,23.83
2022-09-14T16:27:57.836Z,28.30
2022-09-14T16:30:25.291Z,23.15
2022-09-14T16:32:53.983Z,28.13
2022-09-14T16:35:21.486Z,27.13
2022-09-14T16:37:49.521Z,24.90
2022-09-14T16:40:18.145Z,28.27
2022-09-14T16:42:48.676Z,22.88
2022-09-14T16:45:16.113Z,23.77
2022-09-14T16:47:43.621Z,27.58
2022-09-14T16:50:11.041Z,28.63
2022-09-14T16:52:37.942Z,28.30
2022-09-14T16:55:05.732Z,26.02
2022-09-14T16:57:33.050Z,27.90
2022-09-14T17:00:00.080Z,28.98
2022-09-14T17:02:27.461Z,27.95
2022-09-14T17:04:54.905Z,27.50
2022-09-14T17:07:24.254Z,31.00
2022-09-14T17:09:51.478Z,30.95
2022-09-14T17:12:18.854Z,25.15
2022-09-14T17:14:50.536Z,29.30
2022-09-14T17:17:18.341Z,30.40
2022-09-14T17:19:45.846Z,32.05
2022-09-14T17:22:14.430Z,30.08
2022-09-14T17:24:42.068Z,28.83
2022-09-14T17:27:10.055Z,33.97
2022-09-14T17:29:39.666Z,29.67
2022-09-14T17:34:38.377Z,32.22
2022-09-14T17:37:05.513Z,32.83
2022-09-14T17:39:32.841Z,37.33
2022-09-14T17:42:00.768Z,39.22
2022-09-14T17:44:31.438Z,35.97
2022-09-14T17:46:59.094Z,39.22
2022-09-14T17:49:26.710Z,41.70
2022-09-14T17:51:54.993Z,33.92
2022-09-14T17:54:22.217Z,37.15
2022-09-14T17:56:49.280Z,40.72
2022-09-14T17:59:17.820Z,38.65
2022-09-14T18:01:45.297Z,41.08
2022-09-14T18:04:13.180Z,40.47
2022-09-14T18:06:42.093Z,39.13
2022-09-14T18:09:10.791Z,35.03
2022-09-14T18:11:39.113Z,36.25
2022-09-14T18:14:06.495Z,38.00
2022-09-14T18:16:33.738Z,34.10
2022-09-14T18:19:01.926Z,34.50
2022-09-14T18:21:29.039Z,39.83
2022-09-14T18:23:56.425Z,32.40
2022-09-14T18:26:26.286Z,37.45
2022-09-14T18:28:56.094Z,37.13
2022-09-14T18:31:23.599Z,35.28
2022-09-14T18:33:52.353Z,39.60
2022-09-14T18:36:20.089Z,37.80
2022-09-14T18:38:48.780Z,40.47
2022-09-14T18:41:16.747Z,40.83
2022-09-14T18:43:45.647Z,41.97
2022-09-14T18:46:12.935Z,39.97
2022-09-14T18:48:40.918Z,47.60
2022-09-14T18:51:08.271Z,44.30
2022-09-14T18:53:35.628Z,42.10
2022-09-14T18:56:03.786Z,48.65
2022-09-14T18:58:34.826Z,49.65
2022-09-14T19:01:03.360Z,49.40
2022-09-14T19:03:31.462Z,52.65
2022-09-14T19:05:59.618Z,52.08
2022-09-14T19:08:28.407Z,58.17
2022-09-14T19:10:55.400Z,54.25
2022-09-14T19:13:22.607Z,55.25
2022-09-14T19:15:49.782Z,55.25
2022-09-14T19:18:16.695Z,48.20
2022-09-14T19:21:05.851Z,47.95
2022-09-14T19:23:33.065Z,41.45
2022-09-14T19:26:04.350Z,48.05
2022-09-14T19:28:31.215Z,46.05
2022-09-14T19:30:58.224Z,45.85
2022-09-14T19:33:25.623Z,47.90
2022-09-14T19:35:52.550Z,39.08
2022-09-14T19:38:19.467Z,45.38
2022-09-14T19:40:52.850Z,40.83
2022-09-14T19:43:19.919Z,39.53
2022-09-14T19:45:46.761Z,40.15
2022-09-14T19:48:13.824Z,38.60
2022-09-14T19:50:40.914Z,35.80
2022-09-14T19:53:07.874Z,41.28
2022-09-14T19:55:34.829Z,37.55
2022-09-14T19:58:01.683Z,43.00
2022-09-14T20:00:28.662Z,39.50
2022-09-14T20:02:55.600Z,39.70
2022-09-14T20:05:22.656Z,45.35
2022-09-14T20:07:49.763Z,43.40
2022-09-14T20:10:18.389Z,44.28
2022-09-14T20:12:46.512Z,43.58
2022-09-14T20:15:13.434Z,45.58
2022-09-14T20:17:40.402Z,47.40
2022-09-14T20:20:11.478Z,47.55
2022-09-14T20:22:38.434Z,44.60
2022-09-14T20:25:05.491Z,46.95
2022-09-14T20:27:32.410Z,48.00
2022-09-14T20:29:59.281Z,46.40
2022-09-14T20:32:26.155Z,49.35
2022-09-14T20:34:52.997Z,44.60
2022-09-14T20:37:19.831Z,45.72
2022-09-14T20:39:47.699Z,43.13
2022-09-14T20:42:14.598Z,45.47
2022-09-14T20:44:41.537Z,42.08
2022-09-14T20:47:08.428Z,46.28
2022-09-14T20:49:35.314Z,48.15
2022-09-14T20:52:03.215Z,46.38
2022-09-14T20:54:30.363Z,48.28
2022-09-14T20:57:00.987Z,46.70
2022-09-14T20:59:30.680Z,41.85
2022-09-14T21:02:00.291Z,46.63
2022-09-14T21:04:29.279Z,49.10
2022-09-14T21:06:56.246Z,46.15
2022-09-14T21:09:26.748Z,51.17
2022-09-14T21:11:53.695Z,47.05
2022-09-14T21:14:20.968Z,52.45
2022-09-14T21:16:48.647Z,57.08
2022-09-14T21:19:15.664Z,54.33
2022-09-14T21:21:43.121Z,54.10
2022-09-14T21:24:12.121Z,53.78
2022-09-14T21:26:42.680Z,54.80
2022-09-14T21:29:12.515Z,62.33
2022-09-14T21:31:39.555Z,54.17
2022-09-14T21:34:07.455Z,60.85
2022-09-14T21:36:35.771Z,58.17
2022-09-14T21:39:05.435Z,62.53
2022-09-14T21:41:32.575Z,56.53
2022-09-14T21:43:59.540Z,53.58
2022-09-14T21:46:26.864Z,55.03
2022-09-14T21:48:55.014Z,55.47
2022-09-14T21:51:32.673Z,57.67
2022-09-14T21:54:00.546Z,56.40
2022-09-14T21:56:30.624Z,60.78
2022-09-14T21:58:58.708Z,52.13
2022-09-14T22:01:25.755Z,53.92
2022-09-14T22:03:53.391Z,57.63
2022-09-14T22:06:21.267Z,56.50
2022-09-14T22:08:49.275Z,51.42
2022-09-14T22:11:22.385Z,53.90
2022-09-14T22:13:57.402Z,50.92
2022-09-14T22:16:25.242Z,51.70
2022-09-14T22:18:53.693Z,45.35
2022-09-14T22:21:21.662Z,49.80
2022-09-14T22:23:50.163Z,42.92
2022-09-14T22:26:17.111Z,45.33
2022-09-14T22:28:44.459Z,44.92
2022-09-14T22:31:11.375Z,45.78
2022-09-14T22:33:38.504Z,39.67
2022-09-14T22:36:05.540Z,44.90
2022-09-14T22:38:34.336Z,38.42
2022-09-14T22:41:02.649Z,40.30
2022-09-14T22:43:30.097Z,39.42
2022-09-14T22:45:57.496Z,30.25
2022-09-14T22:48:24.586Z,35.10
2022-09-14T22:50:52.487Z,31.17
2022-09-14T22:53:20.219Z,23.90
2022-09-14T22:55:47.600Z,27.23
2022-09-14T22:58:15.821Z,25.67
2022-09-14T23:00:42.835Z,25.42
2022-09-14T23:03:10.456Z,23.58
2022-09-14T23:05:38.008Z,21.90
2022-09-14T23:08:06.029Z,22.42
2022-09-14T23:10:35.998Z,25.15
2022-09-14T23:13:02.914Z,21.80
2022-09-14T23:15:30.107Z,20.10
2022-09-14T23:17:57.045Z,22.60
2022-09-14T23:20:23.946Z,20.90
2022-09-14T23:22:50.872Z,20.13
2022-09-14T23:25:17.691Z,24.80
2022-09-14T23:27:44.541Z,22.25
2022-09-14T23:30:11.630Z,21.45
2022-09-14T23:32:38.453Z,22.52
2022-09-14T23:35:07.361Z,29.90
2022-09-14T23:37:34.228Z,22.52
2022-09-14T23:40:01.206Z,29.08
2022-09-14T23:42:28.292Z,25.05
2022-09-14T23:44:55.225Z,23.98
2022-09-14T23:47:22.058Z,28.02
2022-09-14T23:49:49.032Z,26.85
2022-09-14T23:52:15.918Z,33.47
2022-09-14T23:54:42.993Z,28.83
2022-09-14T23:57:09.912Z,30.05
2022-09-14T23:59:36.784Z,32.92
